Wetterdaten: Woche 11.05.15 - 17.05.15 (KW20)
Datum Zeit Temperatur Luftfeuchte Luftdruck Niederschlag Windrichtung Sonnenschein Solar Wind
11.05.2015 00:00 11,1 C 80 % 1024,6 hPa 0,0 l/m W-NW 0,00 h 0 W/m 0,8 km/h (0 Bft)
11.05.2015 01:00 10,5 C 83 % 1024,2 hPa 0,0 l/m W-NW 0,00 h 0 W/m 2,4 km/h (1 Bft)
11.05.2015 02:00 10,1 C 85 % 1024,0 hPa 0,0 l/m N 0,00 h 0 W/m 1,3 km/h (1 Bft)
11.05.2015 03:00 9,7 C 86 % 1023,8 hPa 0,0 l/m W-NW 0,00 h 0 W/m 2,1 km/h (1 Bft)
11.05.2015 04:00 9,2 C 87 % 1023,5 hPa 0,0 l/m W-NW 0,00 h 0 W/m 0,7 km/h (0 Bft)
11.05.2015 05:00 8,5 C 88 % 1023,3 hPa 0,0 l/m N 0,00 h 6 W/m 0,9 km/h (0 Bft)
11.05.2015 06:00 8,0 C 89 % 1023,2 hPa 0,0 l/m W-NW 0,08 h 28 W/m 1,3 km/h (1 Bft)
11.05.2015 07:00 9,1 C 93 % 1023,3 hPa 0,0 l/m W-NW 0,58 h 173 W/m 2,0 km/h (1 Bft)
11.05.2015 08:00 12,4 C 82 % 1023,2 hPa 0,0 l/m N 1,00 h 344 W/m 2,8 km/h (1 Bft)
11.05.2015 09:00 15,6 C 68 % 1023,1 hPa 0,0 l/m W-NW 1,00 h 456 W/m 1,7 km/h (1 Bft)
11.05.2015 10:00 18,7 C 57 % 1022,9 hPa 0,0 l/m W-NW 1,00 h 666 W/m 4,0 km/h (1 Bft)
11.05.2015 11:00 21,0 C 51 % 1022,4 hPa 0,0 l/m S 1,00 h 651 W/m 6,3 km/h (2 Bft)
11.05.2015 12:00 22,5 C 49 % 1022,0 hPa 0,0 l/m S 1,00 h 600 W/m 4,5 km/h (1 Bft)
11.05.2015 13:00 24,1 C 44 % 1021,7 hPa 0,0 l/m S 1,00 h 590 W/m 5,1 km/h (1 Bft)
11.05.2015 14:00 25,3 C 38 % 1021,2 hPa 0,0 l/m S-SW 1,00 h 648 W/m 8,0 km/h (2 Bft)
11.05.2015 15:00 25,8 C 38 % 1020,7 hPa 0,0 l/m SW 1,00 h 489 W/m 9,5 km/h (2 Bft)
11.05.2015 16:00 26,3 C 38 % 1020,3 hPa 0,0 l/m SW 0,83 h 547 W/m 7,9 km/h (2 Bft)
11.05.2015 17:00 25,9 C 38 % 1020,0 hPa 0,0 l/m SW 0,75 h 367 W/m 10,2 km/h (2 Bft)
11.05.2015 18:00 24,7 C 44 % 1019,7 hPa 0,0 l/m S-SW 0,75 h 275 W/m 7,8 km/h (2 Bft)
11.05.2015 19:00 24,4 C 42 % 1019,8 hPa 0,0 l/m SW 0,67 h 136 W/m 2,1 km/h (1 Bft)
11.05.2015 20:00 21,8 C 52 % 1019,7 hPa 0,0 l/m N 0,08 h 16 W/m 0,3 km/h (0 Bft)
11.05.2015 21:00 18,2 C 61 % 1019,9 hPa 0,0 l/m N 0,00 h 0 W/m 0,3 km/h (0 Bft)
11.05.2015 22:00 15,8 C 68 % 1020,2 hPa 0,0 l/m N 0,00 h 0 W/m 0,0 km/h (0 Bft)
11.05.2015 23:00 15,4 C 73 % 1020,1 hPa 0,0 l/m N 0,00 h 0 W/m 0,0 km/h (0 Bft)
12.05.2015 00:00 15,9 C 71 % 1020,1 hPa 0,0 l/m N 0,00 h 0 W/m 0,0 km/h (0 Bft)
12.05.2015 01:00 14,4 C 74 % 1019,7 hPa 0,0 l/m N 0,00 h 0 W/m 0,0 km/h (0 Bft)
12.05.2015 02:00 12,7 C 80 % 1019,2 hPa 0,0 l/m N 0,00 h 0 W/m 0,0 km/h (0 Bft)
12.05.2015 03:00 11,6 C 83 % 1018,9 hPa 0,0 l/m N 0,00 h 0 W/m 0,0 km/h (0 Bft)
12.05.2015 04:00 10,6 C 86 % 1018,7 hPa 0,0 l/m N 0,00 h 0 W/m 0,0 km/h (0 Bft)
12.05.2015 05:00 9,9 C 88 % 1018,6 hPa 0,0 l/m N 0,00 h 6 W/m 0,0 km/h (0 Bft)
12.05.2015 06:00 9,6 C 91 % 1018,6 hPa 0,0 l/m N 0,00 h 25 W/m 0,1 km/h (0 Bft)
12.05.2015 07:00 10,2 C 93 % 1018,6 hPa 0,0 l/m N 0,25 h 126 W/m 0,1 km/h (0 Bft)
12.05.2015 08:00 12,7 C 92 % 1018,7 hPa 0,0 l/m S-SW 1,00 h 287 W/m 5,0 km/h (1 Bft)
12.05.2015 09:00 17,7 C 74 % 1018,5 hPa 0,0 l/m S 1,00 h 475 W/m 10,5 km/h (2 Bft)
12.05.2015 10:00 21,0 C 64 % 1018,0 hPa 0,0 l/m S-SW 1,00 h 576 W/m 12,5 km/h (3 Bft)
12.05.2015 11:00 22,8 C 54 % 1017,9 hPa 0,0 l/m SW 1,00 h 657 W/m 19,1 km/h (3 Bft)
12.05.2015 12:00 24,2 C 44 % 1017,5 hPa 0,0 l/m W 1,00 h 678 W/m 25,9 km/h (4 Bft)
12.05.2015 13:00 25,5 C 39 % 1017,2 hPa 0,0 l/m W-SW 1,00 h 727 W/m 24,1 km/h (4 Bft)
12.05.2015 14:00 26,5 C 39 % 1016,7 hPa 0,0 l/m W-SW 1,00 h 696 W/m 18,5 km/h (3 Bft)
12.05.2015 15:00 27,0 C 40 % 1016,2 hPa 0,0 l/m SW 1,00 h 650 W/m 20,6 km/h (4 Bft)
12.05.2015 16:00 27,2 C 38 % 1015,7 hPa 0,0 l/m W-SW 1,00 h 513 W/m 20,9 km/h (4 Bft)
12.05.2015 17:00 27,1 C 39 % 1015,3 hPa 0,0 l/m W-SW 1,00 h 374 W/m 21,4 km/h (4 Bft)
12.05.2015 18:00 26,4 C 42 % 1014,9 hPa 0,0 l/m W-SW 0,58 h 207 W/m 18,5 km/h (3 Bft)
12.05.2015 19:00 25,1 C 45 % 1014,8 hPa 0,0 l/m W-SW 0,00 h 86 W/m 12,9 km/h (3 Bft)
12.05.2015 20:00 23,4 C 48 % 1014,9 hPa 0,0 l/m W-SW 0,00 h 17 W/m 11,8 km/h (2 Bft)
12.05.2015 21:00 22,0 C 47 % 1015,2 hPa 0,0 l/m W-SW 0,00 h 0 W/m 15,3 km/h (3 Bft)
12.05.2015 22:00 21,7 C 45 % 1015,5 hPa 0,0 l/m W-SW 0,00 h 0 W/m 13,7 km/h (3 Bft)
12.05.2015 23:00 21,2 C 47 % 1016,0 hPa 0,0 l/m W 0,00 h 0 W/m 9,4 km/h (2 Bft)
13.05.2015 00:00 20,5 C 53 % 1016,8 hPa 0,0 l/m N-NW 0,00 h 0 W/m 8,0 km/h (2 Bft)
13.05.2015 01:00 18,9 C 64 % 1017,5 hPa 0,0 l/m N 0,00 h 0 W/m 0,3 km/h (0 Bft)
13.05.2015 02:00 17,7 C 76 % 1017,7 hPa 0,0 l/m N-NW 0,00 h 0 W/m 3,9 km/h (1 Bft)
13.05.2015 03:00 17,0 C 78 % 1017,7 hPa 0,0 l/m N-NW 0,00 h 0 W/m 3,7 km/h (1 Bft)
13.05.2015 04:00 16,1 C 80 % 1017,8 hPa 0,0 l/m N-NW 0,00 h 0 W/m 4,5 km/h (1 Bft)
13.05.2015 05:00 15,5 C 81 % 1017,7 hPa 0,0 l/m N-NW 0,00 h 0 W/m 2,9 km/h (1 Bft)
13.05.2015 06:00 15,2 C 81 % 1017,7 hPa 0,0 l/m N 0,00 h 22 W/m 2,0 km/h (1 Bft)
13.05.2015 07:00 15,3 C 79 % 1017,4 hPa 0,0 l/m N-NW 0,00 h 60 W/m 4,1 km/h (1 Bft)
13.05.2015 08:00 15,8 C 75 % 1017,2 hPa 0,0 l/m N 0,00 h 118 W/m 4,9 km/h (1 Bft)
13.05.2015 09:00 16,7 C 75 % 1016,8 hPa 0,0 l/m N-NO 0,25 h 251 W/m 6,4 km/h (2 Bft)
13.05.2015 10:00 18,6 C 69 % 1016,1 hPa 0,0 l/m O-NO 0,67 h 411 W/m 6,8 km/h (2 Bft)
13.05.2015 11:00 20,1 C 67 % 1015,3 hPa 0,0 l/m O 0,67 h 545 W/m 6,0 km/h (2 Bft)
13.05.2015 12:00 21,9 C 64 % 1014,3 hPa 0,0 l/m O-NO 0,75 h 724 W/m 6,6 km/h (2 Bft)
13.05.2015 13:00 23,3 C 59 % 1013,4 hPa 0,0 l/m N-NW 0,67 h 697 W/m 9,1 km/h (2 Bft)
13.05.2015 14:00 24,2 C 55 % 1012,6 hPa 0,0 l/m W-NW 0,17 h 346 W/m 11,8 km/h (2 Bft)
13.05.2015 15:00 23,4 C 58 % 1011,7 hPa 0,0 l/m NW 0,08 h 296 W/m 8,2 km/h (2 Bft)
13.05.2015 16:00 23,5 C 57 % 1011,0 hPa 0,0 l/m N-NW 0,08 h 161 W/m 5,2 km/h (1 Bft)
13.05.2015 17:00 22,9 C 67 % 1010,3 hPa 0,0 l/m W 0,08 h 101 W/m 4,4 km/h (1 Bft)
13.05.2015 18:00 22,2 C 71 % 1009,4 hPa 0,0 l/m W-SW 0,50 h 183 W/m 7,0 km/h (2 Bft)
13.05.2015 19:00 22,1 C 72 % 1008,0 hPa 0,0 l/m SW 0,33 h 86 W/m 3,6 km/h (1 Bft)
13.05.2015 20:00 20,7 C 75 % 1007,2 hPa 0,0 l/m N 0,00 h 10 W/m 0,3 km/h (0 Bft)
13.05.2015 21:00 19,2 C 79 % 1007,3 hPa 0,4 l/m SW 0,00 h 0 W/m 6,4 km/h (2 Bft)
13.05.2015 22:00 17,6 C 71 % 1007,5 hPa 0,4 l/m W-NW 0,00 h 0 W/m 17,3 km/h (3 Bft)
13.05.2015 23:00 17,2 C 71 % 1007,7 hPa 0,0 l/m W-NW 0,00 h 0 W/m 14,1 km/h (3 Bft)
14.05.2015 00:00 16,7 C 77 % 1008,5 hPa 0,0 l/m W-NW 0,00 h 0 W/m 12,9 km/h (3 Bft)
14.05.2015 01:00 15,7 C 81 % 1008,6 hPa 2,0 l/m W 0,00 h 0 W/m 6,4 km/h (2 Bft)
14.05.2015 02:00 14,8 C 91 % 1008,6 hPa 2,6 l/m W 0,00 h 0 W/m 14,8 km/h (3 Bft)
14.05.2015 03:00 14,3 C 94 % 1008,5 hPa 2,2 l/m W-SW 0,00 h 0 W/m 15,8 km/h (3 Bft)
14.05.2015 04:00 13,8 C 94 % 1008,6 hPa 2,4 l/m W 0,00 h 0 W/m 17,8 km/h (3 Bft)
14.05.2015 05:00 13,5 C 95 % 1008,8 hPa 2,0 l/m W-NW 0,00 h 0 W/m 15,2 km/h (3 Bft)
14.05.2015 06:00 13,3 C 96 % 1009,2 hPa 0,4 l/m W-NW 0,00 h 17 W/m 7,6 km/h (2 Bft)
14.05.2015 07:00 13,6 C 96 % 1009,3 hPa 0,0 l/m N 0,00 h 30 W/m 0,7 km/h (0 Bft)
14.05.2015 08:00 13,8 C 97 % 1009,7 hPa 5,8 l/m W-NW 0,00 h 29 W/m 5,8 km/h (1 Bft)
14.05.2015 09:00 13,8 C 97 % 1009,7 hPa 0,2 l/m W-NW 0,00 h 51 W/m 4,9 km/h (1 Bft)
14.05.2015 10:00 13,6 C 97 % 1010,1 hPa 1,0 l/m W-NW 0,00 h 67 W/m 4,2 km/h (1 Bft)
14.05.2015 11:00 12,6 C 94 % 1010,2 hPa 0,2 l/m N 0,00 h 113 W/m 6,3 km/h (2 Bft)
14.05.2015 12:00 14,2 C 86 % 1009,8 hPa 0,0 l/m NW 0,25 h 414 W/m 5,5 km/h (1 Bft)
14.05.2015 13:00 15,3 C 78 % 1009,4 hPa 0,0 l/m NW 0,33 h 357 W/m 3,3 km/h (1 Bft)
14.05.2015 14:00 16,7 C 72 % 1008,7 hPa 0,0 l/m NW 0,33 h 415 W/m 3,2 km/h (1 Bft)
14.05.2015 15:00 16,9 C 74 % 1008,4 hPa 0,0 l/m W-NW 0,17 h 279 W/m 5,1 km/h (1 Bft)
14.05.2015 16:00 18,1 C 72 % 1008,0 hPa 0,0 l/m W 0,58 h 468 W/m 5,4 km/h (1 Bft)
14.05.2015 17:00 18,6 C 70 % 1007,5 hPa 0,0 l/m W 0,67 h 453 W/m 6,0 km/h (2 Bft)
14.05.2015 18:00 18,6 C 68 % 1007,1 hPa 0,0 l/m W-SW 0,42 h 234 W/m 3,7 km/h (1 Bft)
14.05.2015 19:00 17,7 C 73 % 1006,9 hPa 0,0 l/m W-SW 0,17 h 69 W/m 1,2 km/h (1 Bft)
14.05.2015 20:00 15,6 C 85 % 1006,6 hPa 0,0 l/m W-SW 0,00 h 13 W/m 1,9 km/h (1 Bft)
14.05.2015 21:00 14,2 C 89 % 1006,8 hPa 0,0 l/m N 0,00 h 0 W/m 1,1 km/h (0 Bft)
14.05.2015 22:00 13,3 C 92 % 1006,6 hPa 0,0 l/m N 0,00 h 0 W/m 0,0 km/h (0 Bft)
14.05.2015 23:00 12,9 C 93 % 1006,5 hPa 0,0 l/m N 0,00 h 0 W/m 0,0 km/h (0 Bft)
15.05.2015 00:00 12,6 C 94 % 1006,3 hPa 0,0 l/m W 0,00 h 0 W/m 5,4 km/h (1 Bft)
15.05.2015 01:00 12,7 C 94 % 1006,1 hPa 0,0 l/m W 0,00 h 0 W/m 3,6 km/h (1 Bft)
15.05.2015 02:00 13,0 C 93 % 1006,2 hPa 0,4 l/m W 0,00 h 0 W/m 11,0 km/h (2 Bft)
15.05.2015 03:00 12,5 C 93 % 1006,5 hPa 1,6 l/m W-NW 0,00 h 0 W/m 16,9 km/h (3 Bft)
15.05.2015 04:00 11,7 C 95 % 1006,9 hPa 0,4 l/m W 0,00 h 0 W/m 16,6 km/h (3 Bft)
15.05.2015 05:00 10,9 C 95 % 1007,3 hPa 0,6 l/m W 0,00 h 0 W/m 16,6 km/h (3 Bft)
15.05.2015 06:00 9,8 C 95 % 1007,6 hPa 1,8 l/m W-NW 0,00 h 7 W/m 11,7 km/h (2 Bft)
15.05.2015 07:00 9,4 C 96 % 1007,8 hPa 1,0 l/m W 0,00 h 7 W/m 8,3 km/h (2 Bft)
15.05.2015 08:00 9,3 C 96 % 1008,2 hPa 2,6 l/m W 0,00 h 13 W/m 6,4 km/h (2 Bft)
15.05.2015 09:00 9,2 C 97 % 1008,5 hPa 1,6 l/m W 0,00 h 42 W/m 3,6 km/h (1 Bft)
15.05.2015 10:00 9,4 C 97 % 1008,7 hPa 0,8 l/m W 0,00 h 45 W/m 3,9 km/h (1 Bft)
15.05.2015 11:00 9,5 C 97 % 1009,2 hPa 2,0 l/m W-NW 0,00 h 48 W/m 9,1 km/h (2 Bft)
15.05.2015 12:00 9,3 C 97 % 1009,4 hPa 1,6 l/m N 0,00 h 41 W/m 13,4 km/h (3 Bft)
15.05.2015 13:00 9,3 C 97 % 1009,7 hPa 3,0 l/m N-NO 0,00 h 43 W/m 11,0 km/h (2 Bft)
15.05.2015 14:00 9,5 C 97 % 1010,0 hPa 5,2 l/m N 0,00 h 23 W/m 0,3 km/h (0 Bft)
15.05.2015 15:00 9,7 C 98 % 1010,5 hPa 1,6 l/m N-NO 0,00 h 20 W/m 2,9 km/h (1 Bft)
15.05.2015 16:00 10,3 C 98 % 1011,3 hPa 0,6 l/m N-NO 0,00 h 64 W/m 4,4 km/h (1 Bft)
15.05.2015 17:00 11,4 C 98 % 1012,0 hPa 0,0 l/m NO 0,00 h 77 W/m 15,4 km/h (3 Bft)
15.05.2015 18:00 11,8 C 98 % 1012,4 hPa 0,0 l/m NO 0,00 h 48 W/m 7,2 km/h (2 Bft)
15.05.2015 19:00 11,3 C 97 % 1013,4 hPa 0,0 l/m NO 0,00 h 29 W/m 6,5 km/h (2 Bft)
15.05.2015 20:00 10,3 C 96 % 1014,3 hPa 0,0 l/m O-NO 0,00 h 10 W/m 5,0 km/h (1 Bft)
15.05.2015 21:00 9,8 C 96 % 1015,3 hPa 0,0 l/m SO 0,00 h 0 W/m 5,5 km/h (1 Bft)
15.05.2015 22:00 9,4 C 97 % 1016,3 hPa 0,0 l/m S 0,00 h 0 W/m 3,1 km/h (1 Bft)
15.05.2015 23:00 9,2 C 97 % 1017,1 hPa 0,0 l/m S 0,00 h 0 W/m 3,3 km/h (1 Bft)
16.05.2015 00:00 9,1 C 97 % 1017,7 hPa 0,0 l/m S 0,00 h 0 W/m 4,3 km/h (1 Bft)
16.05.2015 01:00 8,9 C 97 % 1018,1 hPa 0,0 l/m S-SW 0,00 h 0 W/m 8,9 km/h (2 Bft)
16.05.2015 02:00 8,7 C 98 % 1018,4 hPa 0,0 l/m S-SW 0,00 h 0 W/m 4,3 km/h (1 Bft)
16.05.2015 03:00 8,7 C 98 % 1018,5 hPa 0,0 l/m S-SW 0,00 h 0 W/m 7,4 km/h (2 Bft)
16.05.2015 04:00 8,8 C 98 % 1018,8 hPa 0,0 l/m S-SW 0,00 h 0 W/m 2,9 km/h (1 Bft)
16.05.2015 05:00 8,9 C 99 % 1019,4 hPa 0,0 l/m N 0,00 h 0 W/m 0,0 km/h (0 Bft)
16.05.2015 06:00 9,0 C 99 % 1020,4 hPa 0,0 l/m S-SW 0,00 h 12 W/m 2,9 km/h (1 Bft)
16.05.2015 07:00 9,3 C 99 % 1021,1 hPa 0,0 l/m S-SW 0,00 h 40 W/m 5,6 km/h (1 Bft)
16.05.2015 08:00 9,8 C 99 % 1021,7 hPa 0,0 l/m S-SW 0,00 h 94 W/m 4,7 km/h (1 Bft)
16.05.2015 09:00 11,0 C 96 % 1022,1 hPa 0,0 l/m SW 0,00 h 192 W/m 7,2 km/h (2 Bft)
16.05.2015 10:00 12,4 C 92 % 1022,4 hPa 0,0 l/m SW 0,25 h 375 W/m 11,8 km/h (2 Bft)
16.05.2015 11:00 12,6 C 91 % 1022,6 hPa 0,0 l/m SW 0,00 h 299 W/m 14,2 km/h (3 Bft)
16.05.2015 12:00 13,6 C 88 % 1022,5 hPa 0,0 l/m SW 0,17 h 379 W/m 16,1 km/h (3 Bft)
16.05.2015 13:00 14,9 C 85 % 1022,4 hPa 0,0 l/m SW 0,83 h 899 W/m 17,0 km/h (3 Bft)
16.05.2015 14:00 16,1 C 82 % 1022,0 hPa 0,0 l/m S-SW 0,83 h 708 W/m 17,7 km/h (3 Bft)
16.05.2015 15:00 17,4 C 78 % 1021,7 hPa 0,0 l/m S 0,92 h 571 W/m 17,3 km/h (3 Bft)
16.05.2015 16:00 18,0 C 73 % 1021,5 hPa 0,0 l/m S-SW 0,67 h 450 W/m 16,4 km/h (3 Bft)
16.05.2015 17:00 17,6 C 69 % 1021,6 hPa 0,0 l/m W-SW 0,33 h 272 W/m 17,4 km/h (3 Bft)
16.05.2015 18:00 16,7 C 68 % 1021,8 hPa 0,0 l/m W-SW 0,17 h 152 W/m 17,6 km/h (3 Bft)
16.05.2015 19:00 16,3 C 71 % 1021,8 hPa 0,0 l/m W 0,00 h 64 W/m 10,6 km/h (2 Bft)
16.05.2015 20:00 15,4 C 77 % 1022,2 hPa 0,0 l/m W 0,00 h 18 W/m 5,1 km/h (1 Bft)
16.05.2015 21:00 14,8 C 81 % 1022,6 hPa 0,0 l/m W 0,00 h 0 W/m 2,5 km/h (1 Bft)
16.05.2015 22:00 13,7 C 87 % 1022,9 hPa 0,0 l/m N 0,00 h 0 W/m 0,0 km/h (0 Bft)
16.05.2015 23:00 12,3 C 92 % 1023,3 hPa 0,0 l/m N 0,00 h 0 W/m 0,4 km/h (0 Bft)
17.05.2015 00:00 11,5 C 93 % 1023,5 hPa 0,0 l/m N 0,00 h 0 W/m 0,0 km/h (0 Bft)
17.05.2015 01:00 11,5 C 93 % 1023,5 hPa 0,0 l/m NW 0,00 h 0 W/m 4,3 km/h (1 Bft)
17.05.2015 02:00 12,1 C 89 % 1023,2 hPa 0,0 l/m N 0,00 h 0 W/m 2,1 km/h (1 Bft)
17.05.2015 03:00 12,2 C 87 % 1023,4 hPa 0,0 l/m N 0,00 h 0 W/m 0,7 km/h (0 Bft)
17.05.2015 04:00 12,0 C 87 % 1023,3 hPa 0,0 l/m NW 0,00 h 0 W/m 3,6 km/h (1 Bft)
17.05.2015 05:00 11,9 C 88 % 1023,3 hPa 0,0 l/m NW 0,00 h 0 W/m 2,1 km/h (1 Bft)
17.05.2015 06:00 11,8 C 90 % 1023,6 hPa 0,0 l/m NW 0,00 h 11 W/m 4,3 km/h (1 Bft)
17.05.2015 07:00 11,7 C 91 % 1023,7 hPa 0,0 l/m N-NW 0,00 h 40 W/m 7,1 km/h (2 Bft)
17.05.2015 08:00 12,0 C 89 % 1023,8 hPa 0,0 l/m N 0,00 h 91 W/m 5,9 km/h (2 Bft)
17.05.2015 09:00 12,7 C 84 % 1023,7 hPa 0,0 l/m N 0,00 h 178 W/m 4,4 km/h (1 Bft)
17.05.2015 10:00 14,0 C 78 % 1023,4 hPa 0,0 l/m N 0,25 h 319 W/m 4,1 km/h (1 Bft)
17.05.2015 11:00 14,9 C 74 % 1023,1 hPa 0,0 l/m N 0,25 h 412 W/m 6,4 km/h (2 Bft)
17.05.2015 12:00 15,0 C 74 % 1022,8 hPa 0,0 l/m W-NW 0,00 h 235 W/m 4,8 km/h (1 Bft)
17.05.2015 13:00 16,4 C 68 % 1022,1 hPa 0,0 l/m N-NW 0,17 h 350 W/m 6,7 km/h (2 Bft)
17.05.2015 14:00 17,1 C 65 % 1021,3 hPa 0,0 l/m N 0,25 h 458 W/m 8,9 km/h (2 Bft)
17.05.2015 15:00 17,9 C 61 % 1020,6 hPa 0,0 l/m N-NW 0,33 h 488 W/m 9,4 km/h (2 Bft)
17.05.2015 16:00 18,7 C 57 % 1019,8 hPa 0,0 l/m W-NW 0,75 h 635 W/m 9,7 km/h (2 Bft)
17.05.2015 17:00 19,8 C 53 % 1019,2 hPa 0,0 l/m N 0,92 h 536 W/m 9,3 km/h (2 Bft)
17.05.2015 18:00 19,6 C 52 % 1018,9 hPa 0,0 l/m N-NW 0,92 h 386 W/m 7,6 km/h (2 Bft)
17.05.2015 19:00 18,6 C 54 % 1018,7 hPa 0,0 l/m N-NW 0,92 h 180 W/m 3,7 km/h (1 Bft)
17.05.2015 20:00 15,6 C 72 % 1018,5 hPa 0,0 l/m N 0,00 h 14 W/m 0,4 km/h (0 Bft)
17.05.2015 21:00 14,4 C 75 % 1018,9 hPa 0,0 l/m N-NO 0,00 h 0 W/m 8,0 km/h (2 Bft)
17.05.2015 22:00 13,3 C 80 % 1019,2 hPa 0,0 l/m NO 0,00 h 0 W/m 2,7 km/h (1 Bft)
17.05.2015 23:00 12,2 C 85 % 1018,6 hPa 0,0 l/m NO 0,00 h 0 W/m 2,5 km/h (1 Bft)
Min-Datum _ 11.05.15 11.05.15 15.05.15 - - - - 11.05.15
_ Min-Zeit 06:20 16:50 01:50 - - - - 00:00
Minimum _ 7,9 C 35 % 1005,9 hPa - - - - 0,0 km/h (0 Bft)
Max-Datum _ 12.05.15 15.05.15 11.05.15 14.05.15 - 11.05.15 16.05.15 13.05.15
_ Max-Zeit 16:05 16:50 00:00 08:10 - 06:00 13:20 22:00
Maximum _ 27,3 C 99 % 1024,8 hPa 5,8 l/m - 0,08 h 1046 W/m 35,4 km/h
W-NW (5 Bft)
Durchschnitt _ 15,5 C 77 % 1016,3 hPa #44,4 l/m W #38:40 h 266 W/m 6,9 km/h (2 Bft)